Time;durP1;ratioP1;P1;durP2;ratioP2;P2;SDS_P1;SDS_P2;PMS_P1;PMS_P2;Temp;Humidity;BMP_temperature;BMP_pressure;BME280_temperature;BME280_humidity;BME280_pressure;Samples;Min_cycle;Max_cycle;Signal;HPM_P1;HPM_P2
2023/01/16 00:08:31;;;;;;;;;;;;;;;6.18;87.78;99810.06;20941923;28;19960;-57
2023/01/16 00:18:53;;;;;;;;;;;;;;;6.17;88.60;99805.00;20940887;28;19931;-57
2023/01/16 00:29:15;;;;;;;;;;;;;;;6.12;88.47;99797.41;20923839;28;20438;-58
2023/01/16 00:39:38;;;;;;;;;;;;;;;6.07;88.99;99789.00;20925940;28;20568;-58
2023/01/16 00:49:59;;;;;;;;;;;;;;;6.05;88.02;99770.22;20944398;28;20402;-58
2023/01/16 01:00:21;;;;;;;;;;;;;;;6.01;88.70;99758.34;20941743;28;19936;-57
2023/01/16 01:10:42;;;;;;;;;;;;;;;5.99;88.13;99737.00;20921489;28;19931;-56
2023/01/16 01:21:04;;;;;;;;;;;;;;;6.04;88.14;99712.06;20933821;28;20023;-57
2023/01/16 01:31:25;;;;;;;;;;;;;;;6.07;88.79;99689.72;20941836;28;19932;-59
2023/01/16 01:41:47;;;;;;;;;;;;;;;6.13;89.00;99665.56;20934974;28;19933;-57
2023/01/16 01:52:10;;;;;;;;;;;;;;;6.15;87.95;99647.53;20930453;28;19925;-57
2023/01/16 02:02:33;;;;;;;;;;;;;;;6.19;88.38;99623.44;20935117;28;19970;-57
2023/01/16 02:12:55;;;;;;;;;;;;;;;6.16;88.74;99606.41;20946473;28;19985;-59
2023/01/16 02:23:26;;;;;;;;;;;;;;;6.10;89.17;99588.59;20921978;28;20014;-58
2023/01/16 02:33:51;;;;;;;;;;;;;;;6.05;88.79;99569.97;20926201;28;19983;-58
2023/01/16 02:44:15;;;;;;;;;;;;;;;6.05;89.11;99560.53;20939389;28;19932;-57
2023/01/16 02:54:45;;;;;;;;;;;;;;;6.12;88.69;99525.22;20946823;28;19932;-58
2023/01/16 03:05:07;;;;;;;;;;;;;;;6.10;89.31;99516.72;20946805;28;20006;-58
2023/01/16 03:15:54;;;;;;;;;;;;;;;6.05;88.18;99491.22;20955577;28;20374;-58
2023/01/16 03:26:20;;;;;;;;;;;;;;;5.96;89.03;99488.09;20942838;28;19994;-57
2023/01/16 03:36:49;;;;;;;;;;;;;;;5.85;88.45;99483.34;20946348;28;19928;-57
2023/01/16 03:47:15;;;;;;;;;;;;;;;5.79;90.33;99459.53;20944405;28;20325;-57
2023/01/16 03:57:42;;;;;;;;;;;;;;;5.77;89.41;99448.50;20959451;28;19986;-58
2023/01/16 04:08:08;;;;;;;;;;;;;;;5.80;90.47;99433.00;20948388;28;19928;-59
2023/01/16 04:18:31;;;;;;;;;;;;;;;5.87;89.11;99416.53;20947199;28;19924;-58
2023/01/16 04:28:54;;;;;;;;;;;;;;;5.90;88.28;99401.88;20949245;28;19936;-58
2023/01/16 04:39:16;;;;;;;;;;;;;;;5.95;88.42;99373.50;20939677;28;19928;-57
2023/01/16 04:49:37;;;;;;;;;;;;;;;5.98;88.24;99352.84;20938554;28;19932;-57
2023/01/16 04:59:59;;;;;;;;;;;;;;;5.97;88.57;99348.59;20938951;28;19970;-58
2023/01/16 05:10:20;;;;;;;;;;;;;;;6.00;87.32;99343.38;20927455;28;19928;-58
2023/01/16 05:20:42;;;;;;;;;;;;;;;5.96;87.99;99323.81;20937508;28;19931;-57
2023/01/16 05:31:03;;;;;;;;;;;;;;;5.93;87.79;99314.50;20954215;28;19970;-58
2023/01/16 05:41:25;;;;;;;;;;;;;;;5.90;90.48;99308.63;20937972;28;19928;-59
2023/01/16 05:51:46;;;;;;;;;;;;;;;5.82;91.07;99296.03;20946137;28;19924;-57
2023/01/16 06:02:08;;;;;;;;;;;;;;;5.72;91.46;99269.03;20937474;28;20284;-57
2023/01/16 06:12:31;;;;;;;;;;;;;;;5.69;90.81;99258.06;20937577;28;19931;-57
2023/01/16 06:22:53;;;;;;;;;;;;;;;5.65;90.36;99241.09;20940629;28;19990;-58
2023/01/16 06:33:14;;;;;;;;;;;;;;;5.63;91.11;99215.50;20932187;28;19947;-57
2023/01/16 06:43:35;;;;;;;;;;;;;;;5.64;91.14;99200.94;20938536;28;19925;-57
2023/01/16 06:53:57;;;;;;;;;;;;;;;5.67;90.54;99200.81;20940468;28;19925;-57
2023/01/16 07:04:18;;;;;;;;;;;;;;;5.66;91.16;99199.16;20930802;28;20051;-59
2023/01/16 07:25:31;;;;;;;;;;;;;;;5.60;92.27;99178.84;20917074;28;19990;-57
2023/01/16 07:35:52;;;;;;;;;;;;;;;5.48;92.40;99159.59;20974125;28;19932;-57
2023/01/16 07:46:14;;;;;;;;;;;;;;;5.38;92.71;99142.91;20936549;28;19928;-58
2023/01/16 07:56:35;;;;;;;;;;;;;;;5.28;92.14;99122.75;20945350;28;19925;-58
2023/01/16 08:06:57;;;;;;;;;;;;;;;5.22;91.57;99100.72;20930056;28;19924;-57
2023/01/16 08:17:18;;;;;;;;;;;;;;;5.20;91.36;99083.75;20947655;28;19932;-57
2023/01/16 08:27:40;;;;;;;;;;;;;;;5.19;92.48;99061.56;20949925;28;19974;-57
2023/01/16 08:38:01;;;;;;;;;;;;;;;5.17;91.31;99036.00;20952504;28;19929;-57
2023/01/16 08:59:04;;;;;;;;;;;;;;;5.36;91.27;99005.38;20938251;28;20299;-57
2023/01/16 09:09:26;;;;;;;;;;;;;;;5.40;90.30;98987.25;20918783;28;20401;-57
2023/01/16 09:19:47;;;;;;;;;;;;;;;5.48;89.61;98966.41;20918453;28;20005;-57
2023/01/16 09:30:09;;;;;;;;;;;;;;;5.56;89.23;98937.00;20934958;28;19974;-57
2023/01/16 09:40:31;;;;;;;;;;;;;;;5.66;88.48;98928.03;20925297;28;19998;-59
2023/01/16 09:50:54;;;;;;;;;;;;;;;5.83;88.23;98889.72;20927031;28;19978;-56
2023/01/16 10:01:22;;;;;;;;;;;;;;;5.94;89.43;98868.72;20934035;28;19943;-57
2023/01/16 10:12:04;;;;;;;;;;;;;;;5.99;88.47;98830.84;20925824;28;20319;-57
2023/01/16 10:22:35;;;;;;;;;;;;;;;6.05;87.07;98813.47;20922644;28;19970;-58
2023/01/16 10:33:11;;;;;;;;;;;;;;;6.13;86.86;98777.19;20911770;28;19934;-57
2023/01/16 10:54:15;;;;;;;;;;;;;;;6.22;86.72;98719.44;20922207;28;20287;-58
2023/01/16 11:04:36;;;;;;;;;;;;;;;6.25;88.12;98698.75;20924711;28;19978;-59
2023/01/16 11:25:39;;;;;;;;;;;;;;;6.05;91.31;98641.47;20939107;28;20499;-57
2023/01/16 11:36:02;;;;;;;;;;;;;;;6.01;91.35;98609.16;20953671;28;19929;-57
2023/01/16 11:46:30;;;;;;;;;;;;;;;6.00;91.94;98578.44;20914026;28;20422;-56
2023/01/16 11:56:54;;;;;;;;;;;;;;;5.98;92.26;98542.59;20927907;28;19925;-58
2023/01/16 12:07:23;;;;;;;;;;;;;;;5.99;92.19;98533.97;20919676;28;19994;-58
2023/01/16 12:18:01;;;;;;;;;;;;;;;6.02;92.67;98491.94;20920781;28;20320;-58
2023/01/16 12:28:22;;;;;;;;;;;;;;;6.00;93.21;98462.94;20930217;28;20363;-56
2023/01/16 12:38:56;;;;;;;;;;;;;;;5.99;93.50;98435.59;20929912;28;20028;-56
2023/01/16 12:49:37;;;;;;;;;;;;;;;6.04;94.99;98406.22;20931673;28;19925;-56
2023/01/16 12:59:59;;;;;;;;;;;;;;;6.14;93.63;98378.34;20937186;28;19933;-57
2023/01/16 13:21:12;;;;;;;;;;;;;;;6.15;94.92;98333.81;20933799;28;20062;-56
2023/01/16 13:31:37;;;;;;;;;;;;;;;6.22;93.35;98317.19;20920980;28;19989;-56
2023/01/16 13:41:59;;;;;;;;;;;;;;;6.29;93.79;98303.09;20920087;28;19940;-57
2023/01/16 13:52:24;;;;;;;;;;;;;;;6.22;92.44;98301.78;20918114;28;20385;-57
2023/01/16 14:03:00;;;;;;;;;;;;;;;6.17;92.88;98285.81;20923354;28;19959;-57
2023/01/16 14:13:24;;;;;;;;;;;;;;;6.06;92.42;98259.88;20936808;28;20440;-57
2023/01/16 14:24:01;;;;;;;;;;;;;;;5.96;93.01;98240.72;20947864;28;20109;-56
2023/01/16 14:34:33;;;;;;;;;;;;;;;5.99;91.25;98235.41;20935066;28;19924;-58
2023/01/16 14:56:17;;;;;;;;;;;;;;;6.02;92.21;98209.63;20918335;28;20369;-56
2023/01/16 15:06:48;;;;;;;;;;;;;;;6.04;91.83;98187.25;20937011;28;19928;-56
2023/01/16 15:28:04;;;;;;;;;;;;;;;6.08;91.47;98163.06;20951082;28;20322;-56
2023/01/16 15:38:25;;;;;;;;;;;;;;;6.08;91.49;98152.78;20940214;28;20379;-56
2023/01/16 15:48:57;;;;;;;;;;;;;;;6.07;91.29;98148.59;20946186;28;19928;-56
2023/01/16 15:59:36;;;;;;;;;;;;;;;6.03;91.82;98135.09;20937170;28;19932;-56
2023/01/16 16:09:59;;;;;;;;;;;;;;;5.97;92.78;98122.59;20945234;28;20463;-56
2023/01/16 16:20:33;;;;;;;;;;;;;;;5.90;92.04;98108.44;20942584;28;19928;-56
2023/01/16 16:31:13;;;;;;;;;;;;;;;5.92;93.61;98101.50;20947556;28;20008;-56
2023/01/16 16:52:23;;;;;;;;;;;;;;;6.02;92.35;98071.03;20970332;28;19979;-56
2023/01/16 17:02:48;;;;;;;;;;;;;;;6.00;91.05;98063.41;20922920;28;19982;-57
2023/01/16 17:13:10;;;;;;;;;;;;;;;5.98;91.58;98064.41;20940188;28;20007;-57
2023/01/16 17:23:32;;;;;;;;;;;;;;;5.97;90.78;98062.72;20963218;28;20038;-58
2023/01/16 17:33:54;;;;;;;;;;;;;;;5.87;90.72;98051.34;20946536;28;19981;-58
2023/01/16 18:05:37;;;;;;;;;;;;;;;5.71;92.38;98017.97;20942092;28;20366;-55
2023/01/16 18:26:45;;;;;;;;;;;;;;;5.72;92.87;97998.28;20924959;28;19968;-58
2023/01/16 18:37:07;;;;;;;;;;;;;;;5.71;92.46;97989.75;20923706;28;20391;-57
2023/01/16 19:09:04;;;;;;;;;;;;;;;5.70;95.09;97967.59;20914091;28;19929;-55
2023/01/16 19:19:27;;;;;;;;;;;;;;;5.65;94.41;97948.25;20934284;28;19932;-56
2023/01/16 19:29:48;;;;;;;;;;;;;;;5.61;94.27;97941.66;20926904;28;19932;-56
2023/01/16 19:40:11;;;;;;;;;;;;;;;5.57;95.00;97933.31;20927465;28;20026;-56
2023/01/16 19:50:33;;;;;;;;;;;;;;;5.59;95.91;97933.22;20928661;28;19955;-56
2023/01/16 20:01:08;;;;;;;;;;;;;;;5.55;93.79;97917.16;20934844;28;19933;-57
2023/01/16 20:22:09;;;;;;;;;;;;;;;5.50;95.01;97911.50;20926598;28;19932;-55
2023/01/16 20:32:31;;;;;;;;;;;;;;;5.49;94.95;97907.28;20941308;28;20295;-55
2023/01/16 20:53:32;;;;;;;;;;;;;;;5.37;95.74;97891.75;20943540;28;19932;-55
2023/01/16 21:03:54;;;;;;;;;;;;;;;5.35;96.16;97885.91;20935204;28;19970;-56
2023/01/16 21:14:17;;;;;;;;;;;;;;;5.30;95.41;97893.00;20918266;28;19994;-57
2023/01/16 21:24:39;;;;;;;;;;;;;;;5.28;96.58;97882.84;20935541;28;20399;-55
2023/01/16 21:35:00;;;;;;;;;;;;;;;5.31;97.08;97879.28;20929148;28;20353;-56
2023/01/16 21:56:02;;;;;;;;;;;;;;;5.28;97.43;97848.69;20925908;28;19924;-56
2023/01/16 22:06:23;;;;;;;;;;;;;;;5.35;97.71;97852.59;20934805;28;20391;-55
2023/01/16 22:27:25;;;;;;;;;;;;;;;5.42;97.40;97859.00;20929000;28;19936;-56
2023/01/16 22:37:47;;;;;;;;;;;;;;;5.42;97.51;97853.88;20921195;28;20363;-56
2023/01/16 22:48:08;;;;;;;;;;;;;;;5.39;97.64;97843.78;20912973;28;19960;-56
2023/01/16 22:58:30;;;;;;;;;;;;;;;5.42;98.47;97843.63;20923879;28;19932;-55
2023/01/16 23:08:52;;;;;;;;;;;;;;;5.42;97.44;97835.94;20935275;28;19932;-58
2023/01/16 23:19:15;;;;;;;;;;;;;;;5.46;98.49;97851.03;20942730;28;19985;-56
2023/01/16 23:29:36;;;;;;;;;;;;;;;5.40;97.41;97853.97;20926214;28;20042;-56
2023/01/16 23:39:57;;;;;;;;;;;;;;;5.41;97.45;97841.97;20925325;28;20457;-56
2023/01/16 23:50:19;;;;;;;;;;;;;;;5.43;98.83;97845.25;20932614;28;19967;-57
